sensor_id;sensor_type;location;lat;lon;timestamp;P1;durP1;ratioP1;P2;durP2;ratioP2
18290;SDS011;9271;48.590;8.866;2023-08-31T00:00:48;3.73;;;2.47;;
18290;SDS011;9271;48.590;8.866;2023-08-31T00:03:16;4.67;;;2.40;;
18290;SDS011;9271;48.590;8.866;2023-08-31T00:05:43;3.80;;;2.43;;
18290;SDS011;9271;48.590;8.866;2023-08-31T00:08:10;2.20;;;2.00;;
18290;SDS011;9271;48.590;8.866;2023-08-31T00:10:37;2.83;;;2.00;;
18290;SDS011;9271;48.590;8.866;2023-08-31T00:13:05;3.30;;;2.20;;
18290;SDS011;9271;48.590;8.866;2023-08-31T00:15:34;2.50;;;2.30;;
18290;SDS011;9271;48.590;8.866;2023-08-31T00:18:01;3.83;;;2.30;;
18290;SDS011;9271;48.590;8.866;2023-08-31T00:20:29;2.53;;;2.00;;
18290;SDS011;9271;48.590;8.866;2023-08-31T00:22:58;2.97;;;2.20;;
18290;SDS011;9271;48.590;8.866;2023-08-31T00:25:24;4.33;;;1.97;;
18290;SDS011;9271;48.590;8.866;2023-08-31T00:27:51;2.20;;;2.00;;
18290;SDS011;9271;48.590;8.866;2023-08-31T00:30:19;2.30;;;2.10;;
18290;SDS011;9271;48.590;8.866;2023-08-31T00:32:47;2.47;;;2.27;;
18290;SDS011;9271;48.590;8.866;2023-08-31T00:35:13;2.00;;;1.90;;
18290;SDS011;9271;48.590;8.866;2023-08-31T00:37:40;2.33;;;2.13;;
18290;SDS011;9271;48.590;8.866;2023-08-31T00:40:07;2.03;;;1.93;;
18290;SDS011;9271;48.590;8.866;2023-08-31T00:42:36;2.50;;;2.30;;
18290;SDS011;9271;48.590;8.866;2023-08-31T00:45:03;3.10;;;2.63;;
18290;SDS011;9271;48.590;8.866;2023-08-31T00:47:31;2.20;;;2.10;;
18290;SDS011;9271;48.590;8.866;2023-08-31T00:49:59;2.63;;;2.43;;
18290;SDS011;9271;48.590;8.866;2023-08-31T00:52:26;2.60;;;2.40;;
18290;SDS011;9271;48.590;8.866;2023-08-31T00:54:54;2.90;;;2.60;;
18290;SDS011;9271;48.590;8.866;2023-08-31T00:57:21;2.67;;;2.47;;
18290;SDS011;9271;48.590;8.866;2023-08-31T00:59:51;4.03;;;2.80;;
18290;SDS011;9271;48.590;8.866;2023-08-31T01:02:19;3.43;;;2.30;;
18290;SDS011;9271;48.590;8.866;2023-08-31T01:04:52;2.80;;;2.60;;
18290;SDS011;9271;48.590;8.866;2023-08-31T01:07:32;3.43;;;2.43;;
18290;SDS011;9271;48.590;8.866;2023-08-31T01:10:08;4.07;;;2.70;;
18290;SDS011;9271;48.590;8.866;2023-08-31T01:12:44;3.50;;;2.97;;
18290;SDS011;9271;48.590;8.866;2023-08-31T01:15:17;3.10;;;2.90;;
18290;SDS011;9271;48.590;8.866;2023-08-31T01:17:46;3.00;;;2.80;;
18290;SDS011;9271;48.590;8.866;2023-08-31T01:20:16;3.23;;;2.93;;
18290;SDS011;9271;48.590;8.866;2023-08-31T01:22:48;5.07;;;3.60;;
18290;SDS011;9271;48.590;8.866;2023-08-31T01:25:23;4.83;;;3.63;;
18290;SDS011;9271;48.590;8.866;2023-08-31T01:27:50;3.80;;;3.30;;
18290;SDS011;9271;48.590;8.866;2023-08-31T01:30:18;3.40;;;3.13;;
18290;SDS011;9271;48.590;8.866;2023-08-31T01:32:44;4.20;;;3.50;;
18290;SDS011;9271;48.590;8.866;2023-08-31T01:35:11;4.83;;;3.60;;
18290;SDS011;9271;48.590;8.866;2023-08-31T01:37:43;5.07;;;3.70;;
18290;SDS011;9271;48.590;8.866;2023-08-31T01:40:17;4.33;;;3.93;;
18290;SDS011;9271;48.590;8.866;2023-08-31T01:42:47;4.00;;;3.67;;
18290;SDS011;9271;48.590;8.866;2023-08-31T01:45:15;5.37;;;3.73;;
18290;SDS011;9271;48.590;8.866;2023-08-31T01:47:46;4.93;;;3.90;;
18290;SDS011;9271;48.590;8.866;2023-08-31T01:50:12;4.30;;;3.90;;
18290;SDS011;9271;48.590;8.866;2023-08-31T01:52:39;4.80;;;3.90;;
18290;SDS011;9271;48.590;8.866;2023-08-31T01:55:06;6.43;;;4.30;;
18290;SDS011;9271;48.590;8.866;2023-08-31T01:57:33;6.50;;;4.20;;
18290;SDS011;9271;48.590;8.866;2023-08-31T02:00:01;4.43;;;4.03;;
18290;SDS011;9271;48.590;8.866;2023-08-31T02:02:31;4.40;;;3.70;;
18290;SDS011;9271;48.590;8.866;2023-08-31T02:04:57;4.27;;;3.87;;
18290;SDS011;9271;48.590;8.866;2023-08-31T02:07:26;4.17;;;3.80;;
18290;SDS011;9271;48.590;8.866;2023-08-31T02:09:53;4.40;;;4.00;;
18290;SDS011;9271;48.590;8.866;2023-08-31T02:12:19;3.97;;;3.60;;
18290;SDS011;9271;48.590;8.866;2023-08-31T02:14:46;4.90;;;4.40;;
18290;SDS011;9271;48.590;8.866;2023-08-31T02:17:14;4.33;;;4.00;;
18290;SDS011;9271;48.590;8.866;2023-08-31T02:19:41;4.87;;;3.93;;
18290;SDS011;9271;48.590;8.866;2023-08-31T02:22:08;5.23;;;3.60;;
18290;SDS011;9271;48.590;8.866;2023-08-31T02:24:34;5.50;;;3.90;;
18290;SDS011;9271;48.590;8.866;2023-08-31T02:27:01;4.90;;;4.30;;
18290;SDS011;9271;48.590;8.866;2023-08-31T02:29:28;4.50;;;4.10;;
18290;SDS011;9271;48.590;8.866;2023-08-31T02:31:54;4.67;;;4.20;;
18290;SDS011;9271;48.590;8.866;2023-08-31T02:34:22;4.57;;;4.10;;
18290;SDS011;9271;48.590;8.866;2023-08-31T02:36:49;4.73;;;4.23;;
18290;SDS011;9271;48.590;8.866;2023-08-31T02:39:16;5.10;;;4.50;;
18290;SDS011;9271;48.590;8.866;2023-08-31T02:41:42;5.53;;;4.57;;
18290;SDS011;9271;48.590;8.866;2023-08-31T02:44:10;4.90;;;4.40;;
18290;SDS011;9271;48.590;8.866;2023-08-31T02:46:37;5.50;;;5.00;;
18290;SDS011;9271;48.590;8.866;2023-08-31T02:49:04;6.57;;;5.20;;
18290;SDS011;9271;48.590;8.866;2023-08-31T02:51:32;7.47;;;5.03;;
18290;SDS011;9271;48.590;8.866;2023-08-31T02:53:58;7.33;;;5.50;;
18290;SDS011;9271;48.590;8.866;2023-08-31T02:56:25;6.80;;;5.10;;
18290;SDS011;9271;48.590;8.866;2023-08-31T02:58:52;6.30;;;5.30;;
18290;SDS011;9271;48.590;8.866;2023-08-31T03:01:18;7.43;;;4.87;;
18290;SDS011;9271;48.590;8.866;2023-08-31T03:03:45;5.20;;;4.80;;
18290;SDS011;9271;48.590;8.866;2023-08-31T03:06:12;6.30;;;5.27;;
18290;SDS011;9271;48.590;8.866;2023-08-31T03:08:39;5.43;;;4.90;;
18290;SDS011;9271;48.590;8.866;2023-08-31T03:11:05;6.57;;;5.80;;
18290;SDS011;9271;48.590;8.866;2023-08-31T03:13:32;5.97;;;5.37;;
18290;SDS011;9271;48.590;8.866;2023-08-31T03:16:00;7.90;;;5.37;;
18290;SDS011;9271;48.590;8.866;2023-08-31T03:18:27;6.03;;;5.43;;
18290;SDS011;9271;48.590;8.866;2023-08-31T03:20:54;6.20;;;5.60;;
18290;SDS011;9271;48.590;8.866;2023-08-31T03:23:21;6.50;;;5.60;;
18290;SDS011;9271;48.590;8.866;2023-08-31T03:25:49;6.97;;;5.90;;
18290;SDS011;9271;48.590;8.866;2023-08-31T03:28:16;7.90;;;5.93;;
18290;SDS011;9271;48.590;8.866;2023-08-31T03:30:43;6.00;;;5.50;;
18290;SDS011;9271;48.590;8.866;2023-08-31T03:33:10;7.53;;;5.73;;
18290;SDS011;9271;48.590;8.866;2023-08-31T03:35:37;5.73;;;5.13;;
18290;SDS011;9271;48.590;8.866;2023-08-31T03:38:04;8.03;;;6.07;;
18290;SDS011;9271;48.590;8.866;2023-08-31T03:40:31;7.13;;;5.90;;
18290;SDS011;9271;48.590;8.866;2023-08-31T03:42:58;8.00;;;5.90;;
18290;SDS011;9271;48.590;8.866;2023-08-31T03:45:25;7.03;;;5.63;;
18290;SDS011;9271;48.590;8.866;2023-08-31T03:47:53;7.13;;;5.77;;
18290;SDS011;9271;48.590;8.866;2023-08-31T03:50:19;8.30;;;5.43;;
18290;SDS011;9271;48.590;8.866;2023-08-31T03:52:46;6.30;;;5.27;;
18290;SDS011;9271;48.590;8.866;2023-08-31T03:55:13;5.90;;;5.30;;
18290;SDS011;9271;48.590;8.866;2023-08-31T03:57:39;7.23;;;5.63;;
18290;SDS011;9271;48.590;8.866;2023-08-31T04:00:08;12.30;;;5.60;;
18290;SDS011;9271;48.590;8.866;2023-08-31T04:02:37;6.70;;;5.27;;
18290;SDS011;9271;48.590;8.866;2023-08-31T04:05:04;5.93;;;5.30;;
18290;SDS011;9271;48.590;8.866;2023-08-31T04:07:32;5.87;;;4.97;;
18290;SDS011;9271;48.590;8.866;2023-08-31T04:10:00;7.13;;;5.77;;
18290;SDS011;9271;48.590;8.866;2023-08-31T04:12:27;5.80;;;5.30;;
18290;SDS011;9271;48.590;8.866;2023-08-31T04:14:54;8.97;;;5.27;;
18290;SDS011;9271;48.590;8.866;2023-08-31T04:17:22;8.43;;;6.00;;
18290;SDS011;9271;48.590;8.866;2023-08-31T04:19:49;8.27;;;5.70;;
18290;SDS011;9271;48.590;8.866;2023-08-31T04:22:16;8.47;;;5.50;;
18290;SDS011;9271;48.590;8.866;2023-08-31T04:24:43;6.77;;;5.50;;
18290;SDS011;9271;48.590;8.866;2023-08-31T04:27:09;8.27;;;5.70;;
18290;SDS011;9271;48.590;8.866;2023-08-31T04:29:36;9.10;;;5.83;;
18290;SDS011;9271;48.590;8.866;2023-08-31T04:32:04;7.03;;;6.10;;
18290;SDS011;9271;48.590;8.866;2023-08-31T04:34:32;9.33;;;5.60;;
18290;SDS011;9271;48.590;8.866;2023-08-31T04:36:58;10.63;;;6.57;;
18290;SDS011;9271;48.590;8.866;2023-08-31T04:39:26;6.63;;;5.70;;
18290;SDS011;9271;48.590;8.866;2023-08-31T04:41:52;7.10;;;6.07;;
18290;SDS011;9271;48.590;8.866;2023-08-31T04:44:19;6.90;;;6.30;;
18290;SDS011;9271;48.590;8.866;2023-08-31T04:46:45;10.83;;;6.07;;
18290;SDS011;9271;48.590;8.866;2023-08-31T04:49:12;8.97;;;5.73;;
18290;SDS011;9271;48.590;8.866;2023-08-31T04:51:43;8.80;;;6.00;;
18290;SDS011;9271;48.590;8.866;2023-08-31T04:54:10;7.30;;;6.10;;
18290;SDS011;9271;48.590;8.866;2023-08-31T04:56:37;6.60;;;5.97;;
18290;SDS011;9271;48.590;8.866;2023-08-31T04:59:03;7.10;;;5.73;;
18290;SDS011;9271;48.590;8.866;2023-08-31T05:01:30;10.50;;;6.20;;
18290;SDS011;9271;48.590;8.866;2023-08-31T05:03:57;8.10;;;6.10;;
18290;SDS011;9271;48.590;8.866;2023-08-31T05:06:24;6.57;;;5.53;;
18290;SDS011;9271;48.590;8.866;2023-08-31T05:08:52;6.97;;;6.03;;
18290;SDS011;9271;48.590;8.866;2023-08-31T05:11:19;7.03;;;6.33;;
18290;SDS011;9271;48.590;8.866;2023-08-31T05:13:46;9.63;;;6.30;;
18290;SDS011;9271;48.590;8.866;2023-08-31T05:16:13;9.73;;;6.20;;
18290;SDS011;9271;48.590;8.866;2023-08-31T05:18:40;9.27;;;5.90;;
18290;SDS011;9271;48.590;8.866;2023-08-31T05:21:06;6.37;;;5.77;;
18290;SDS011;9271;48.590;8.866;2023-08-31T05:23:33;9.97;;;6.20;;
18290;SDS011;9271;48.590;8.866;2023-08-31T05:26:01;7.77;;;5.37;;
18290;SDS011;9271;48.590;8.866;2023-08-31T05:28:28;5.83;;;5.07;;
18290;SDS011;9271;48.590;8.866;2023-08-31T05:30:55;7.27;;;6.13;;
18290;SDS011;9271;48.590;8.866;2023-08-31T05:33:23;9.37;;;5.90;;
18290;SDS011;9271;48.590;8.866;2023-08-31T05:35:52;10.27;;;5.83;;
18290;SDS011;9271;48.590;8.866;2023-08-31T05:38:19;7.90;;;6.10;;
18290;SDS011;9271;48.590;8.866;2023-08-31T05:40:45;7.07;;;5.50;;
18290;SDS011;9271;48.590;8.866;2023-08-31T05:43:13;6.03;;;5.43;;
18290;SDS011;9271;48.590;8.866;2023-08-31T05:45:40;10.73;;;5.90;;
18290;SDS011;9271;48.590;8.866;2023-08-31T05:48:07;7.73;;;5.40;;
18290;SDS011;9271;48.590;8.866;2023-08-31T05:50:34;6.50;;;5.53;;
18290;SDS011;9271;48.590;8.866;2023-08-31T05:53:01;5.30;;;4.80;;
18290;SDS011;9271;48.590;8.866;2023-08-31T05:55:28;6.13;;;5.10;;
18290;SDS011;9271;48.590;8.866;2023-08-31T05:57:55;7.20;;;4.80;;
18290;SDS011;9271;48.590;8.866;2023-08-31T06:00:23;6.10;;;5.00;;
18290;SDS011;9271;48.590;8.866;2023-08-31T06:02:50;8.73;;;5.03;;
18290;SDS011;9271;48.590;8.866;2023-08-31T06:05:16;5.23;;;4.50;;
18290;SDS011;9271;48.590;8.866;2023-08-31T06:07:43;7.03;;;3.97;;
18290;SDS011;9271;48.590;8.866;2023-08-31T06:10:10;4.80;;;4.30;;
18290;SDS011;9271;48.590;8.866;2023-08-31T06:12:38;6.83;;;4.60;;
18290;SDS011;9271;48.590;8.866;2023-08-31T06:15:05;4.03;;;3.63;;
18290;SDS011;9271;48.590;8.866;2023-08-31T06:17:33;5.80;;;3.53;;
18290;SDS011;9271;48.590;8.866;2023-08-31T06:20:01;3.90;;;3.13;;
18290;SDS011;9271;48.590;8.866;2023-08-31T06:22:29;3.63;;;3.30;;
18290;SDS011;9271;48.590;8.866;2023-08-31T06:24:56;4.77;;;3.03;;
18290;SDS011;9271;48.590;8.866;2023-08-31T06:27:23;3.23;;;2.90;;
18290;SDS011;9271;48.590;8.866;2023-08-31T06:29:50;7.20;;;3.37;;
18290;SDS011;9271;48.590;8.866;2023-08-31T06:32:16;3.40;;;3.10;;
18290;SDS011;9271;48.590;8.866;2023-08-31T06:34:45;3.33;;;2.90;;
18290;SDS011;9271;48.590;8.866;2023-08-31T06:37:12;3.80;;;2.80;;
18290;SDS011;9271;48.590;8.866;2023-08-31T06:39:38;3.37;;;3.07;;
18290;SDS011;9271;48.590;8.866;2023-08-31T06:42:06;5.20;;;3.27;;
18290;SDS011;9271;48.590;8.866;2023-08-31T06:44:32;3.87;;;2.80;;
18290;SDS011;9271;48.590;8.866;2023-08-31T06:46:59;3.77;;;2.53;;
18290;SDS011;9271;48.590;8.866;2023-08-31T06:49:25;3.43;;;2.57;;
18290;SDS011;9271;48.590;8.866;2023-08-31T06:51:53;4.43;;;2.40;;
18290;SDS011;9271;48.590;8.866;2023-08-31T06:54:20;5.97;;;2.30;;
18290;SDS011;9271;48.590;8.866;2023-08-31T06:56:47;3.33;;;2.20;;
18290;SDS011;9271;48.590;8.866;2023-08-31T06:59:13;4.63;;;2.10;;
18290;SDS011;9271;48.590;8.866;2023-08-31T07:01:40;4.77;;;2.50;;
18290;SDS011;9271;48.590;8.866;2023-08-31T07:04:07;2.63;;;2.17;;
18290;SDS011;9271;48.590;8.866;2023-08-31T07:06:34;5.40;;;2.10;;
18290;SDS011;9271;48.590;8.866;2023-08-31T07:09:02;2.50;;;2.00;;
18290;SDS011;9271;48.590;8.866;2023-08-31T07:11:31;3.57;;;2.10;;
18290;SDS011;9271;48.590;8.866;2023-08-31T07:13:57;4.93;;;2.20;;
18290;SDS011;9271;48.590;8.866;2023-08-31T07:16:24;3.70;;;2.10;;
18290;SDS011;9271;48.590;8.866;2023-08-31T07:18:51;4.87;;;2.30;;
18290;SDS011;9271;48.590;8.866;2023-08-31T07:21:18;2.40;;;1.97;;
18290;SDS011;9271;48.590;8.866;2023-08-31T07:23:45;2.80;;;1.90;;
18290;SDS011;9271;48.590;8.866;2023-08-31T07:26:13;4.53;;;1.73;;
18290;SDS011;9271;48.590;8.866;2023-08-31T07:28:40;4.60;;;2.03;;
18290;SDS011;9271;48.590;8.866;2023-08-31T07:31:07;3.10;;;2.00;;
18290;SDS011;9271;48.590;8.866;2023-08-31T07:33:34;2.47;;;2.03;;
18290;SDS011;9271;48.590;8.866;2023-08-31T07:36:01;2.93;;;1.63;;
18290;SDS011;9271;48.590;8.866;2023-08-31T07:38:30;4.10;;;2.20;;
18290;SDS011;9271;48.590;8.866;2023-08-31T07:40:57;3.10;;;2.20;;
18290;SDS011;9271;48.590;8.866;2023-08-31T07:43:26;2.27;;;2.00;;
18290;SDS011;9271;48.590;8.866;2023-08-31T07:45:53;2.70;;;1.83;;
18290;SDS011;9271;48.590;8.866;2023-08-31T07:48:19;2.40;;;1.80;;
18290;SDS011;9271;48.590;8.866;2023-08-31T07:50:46;4.53;;;2.30;;
18290;SDS011;9271;48.590;8.866;2023-08-31T07:53:13;4.90;;;2.23;;
18290;SDS011;9271;48.590;8.866;2023-08-31T07:55:42;3.40;;;1.90;;
18290;SDS011;9271;48.590;8.866;2023-08-31T07:58:17;3.33;;;1.77;;
18290;SDS011;9271;48.590;8.866;2023-08-31T08:00:45;2.20;;;2.00;;
18290;SDS011;9271;48.590;8.866;2023-08-31T08:03:12;3.90;;;1.83;;
18290;SDS011;9271;48.590;8.866;2023-08-31T08:05:38;4.57;;;2.30;;
18290;SDS011;9271;48.590;8.866;2023-08-31T08:08:05;5.23;;;1.93;;
18290;SDS011;9271;48.590;8.866;2023-08-31T08:10:32;2.50;;;1.90;;
18290;SDS011;9271;48.590;8.866;2023-08-31T08:12:58;2.33;;;2.03;;
18290;SDS011;9271;48.590;8.866;2023-08-31T08:15:25;2.23;;;1.80;;
18290;SDS011;9271;48.590;8.866;2023-08-31T08:17:53;2.57;;;2.00;;
18290;SDS011;9271;48.590;8.866;2023-08-31T08:20:21;2.83;;;1.97;;
18290;SDS011;9271;48.590;8.866;2023-08-31T08:22:48;3.33;;;2.03;;
18290;SDS011;9271;48.590;8.866;2023-08-31T08:25:17;3.23;;;2.00;;
18290;SDS011;9271;48.590;8.866;2023-08-31T08:27:44;3.37;;;1.80;;
18290;SDS011;9271;48.590;8.866;2023-08-31T08:30:10;2.27;;;2.07;;
18290;SDS011;9271;48.590;8.866;2023-08-31T08:32:37;3.77;;;2.20;;
18290;SDS011;9271;48.590;8.866;2023-08-31T08:35:05;3.73;;;2.20;;
18290;SDS011;9271;48.590;8.866;2023-08-31T08:37:33;5.03;;;2.10;;
18290;SDS011;9271;48.590;8.866;2023-08-31T08:40:00;4.03;;;2.33;;
18290;SDS011;9271;48.590;8.866;2023-08-31T08:42:26;4.63;;;1.90;;
18290;SDS011;9271;48.590;8.866;2023-08-31T08:44:56;4.00;;;1.87;;
18290;SDS011;9271;48.590;8.866;2023-08-31T08:47:23;4.13;;;1.97;;
18290;SDS011;9271;48.590;8.866;2023-08-31T08:49:51;2.60;;;1.70;;
18290;SDS011;9271;48.590;8.866;2023-08-31T08:52:20;3.70;;;2.10;;
18290;SDS011;9271;48.590;8.866;2023-08-31T08:54:48;4.10;;;2.00;;
18290;SDS011;9271;48.590;8.866;2023-08-31T08:57:15;2.53;;;2.10;;
18290;SDS011;9271;48.590;8.866;2023-08-31T08:59:42;2.70;;;1.90;;
18290;SDS011;9271;48.590;8.866;2023-08-31T09:02:10;3.10;;;2.20;;
18290;SDS011;9271;48.590;8.866;2023-08-31T09:04:37;3.97;;;1.97;;
18290;SDS011;9271;48.590;8.866;2023-08-31T09:07:04;3.50;;;2.20;;
18290;SDS011;9271;48.590;8.866;2023-08-31T09:09:32;4.07;;;2.10;;
18290;SDS011;9271;48.590;8.866;2023-08-31T09:12:13;4.10;;;1.80;;
18290;SDS011;9271;48.590;8.866;2023-08-31T09:14:40;2.07;;;1.87;;
18290;SDS011;9271;48.590;8.866;2023-08-31T09:17:07;2.67;;;2.00;;
18290;SDS011;9271;48.590;8.866;2023-08-31T09:19:33;3.93;;;2.00;;
18290;SDS011;9271;48.590;8.866;2023-08-31T09:22:00;5.70;;;2.40;;
18290;SDS011;9271;48.590;8.866;2023-08-31T09:24:27;3.73;;;2.20;;
18290;SDS011;9271;48.590;8.866;2023-08-31T09:26:56;6.23;;;2.30;;
18290;SDS011;9271;48.590;8.866;2023-08-31T09:29:23;5.00;;;2.63;;
18290;SDS011;9271;48.590;8.866;2023-08-31T09:31:50;4.23;;;2.00;;
18290;SDS011;9271;48.590;8.866;2023-08-31T09:34:17;2.83;;;2.10;;
18290;SDS011;9271;48.590;8.866;2023-08-31T09:36:44;3.47;;;2.20;;
18290;SDS011;9271;48.590;8.866;2023-08-31T09:39:12;3.70;;;2.03;;
18290;SDS011;9271;48.590;8.866;2023-08-31T09:41:52;4.40;;;2.30;;
18290;SDS011;9271;48.590;8.866;2023-08-31T09:44:20;2.33;;;1.93;;
18290;SDS011;9271;48.590;8.866;2023-08-31T09:46:47;2.60;;;2.20;;
18290;SDS011;9271;48.590;8.866;2023-08-31T09:49:14;5.13;;;2.37;;
18290;SDS011;9271;48.590;8.866;2023-08-31T09:51:43;3.63;;;2.00;;
18290;SDS011;9271;48.590;8.866;2023-08-31T09:54:12;3.97;;;2.53;;
18290;SDS011;9271;48.590;8.866;2023-08-31T09:56:40;4.07;;;2.20;;
18290;SDS011;9271;48.590;8.866;2023-08-31T09:59:08;4.13;;;2.37;;
18290;SDS011;9271;48.590;8.866;2023-08-31T10:01:37;6.90;;;2.43;;
18290;SDS011;9271;48.590;8.866;2023-08-31T10:04:04;4.40;;;2.40;;
18290;SDS011;9271;48.590;8.866;2023-08-31T10:06:33;3.77;;;2.23;;
18290;SDS011;9271;48.590;8.866;2023-08-31T10:09:01;6.37;;;2.40;;
18290;SDS011;9271;48.590;8.866;2023-08-31T10:11:28;3.73;;;2.27;;
18290;SDS011;9271;48.590;8.866;2023-08-31T10:13:56;3.73;;;2.37;;
18290;SDS011;9271;48.590;8.866;2023-08-31T10:16:24;4.07;;;2.50;;
18290;SDS011;9271;48.590;8.866;2023-08-31T10:18:53;5.50;;;2.10;;
18290;SDS011;9271;48.590;8.866;2023-08-31T10:21:21;7.20;;;2.33;;
18290;SDS011;9271;48.590;8.866;2023-08-31T10:23:48;2.83;;;2.10;;
18290;SDS011;9271;48.590;8.866;2023-08-31T10:26:22;2.47;;;2.10;;
18290;SDS011;9271;48.590;8.866;2023-08-31T10:28:51;3.60;;;2.47;;
18290;SDS011;9271;48.590;8.866;2023-08-31T10:31:18;4.40;;;2.27;;
18290;SDS011;9271;48.590;8.866;2023-08-31T10:33:47;3.57;;;2.00;;
18290;SDS011;9271;48.590;8.866;2023-08-31T10:36:34;5.53;;;2.30;;
18290;SDS011;9271;48.590;8.866;2023-08-31T10:39:04;2.83;;;2.20;;
18290;SDS011;9271;48.590;8.866;2023-08-31T10:41:33;3.30;;;2.10;;
18290;SDS011;9271;48.590;8.866;2023-08-31T10:44:00;5.07;;;2.00;;
18290;SDS011;9271;48.590;8.866;2023-08-31T10:46:28;2.70;;;2.00;;
18290;SDS011;9271;48.590;8.866;2023-08-31T10:48:58;4.47;;;2.10;;
18290;SDS011;9271;48.590;8.866;2023-08-31T10:51:25;5.03;;;2.40;;
18290;SDS011;9271;48.590;8.866;2023-08-31T10:54:06;3.83;;;2.20;;
18290;SDS011;9271;48.590;8.866;2023-08-31T10:56:42;2.97;;;1.90;;
18290;SDS011;9271;48.590;8.866;2023-08-31T10:59:45;3.37;;;1.90;;
18290;SDS011;9271;48.590;8.866;2023-08-31T11:02:29;3.50;;;1.90;;
18290;SDS011;9271;48.590;8.866;2023-08-31T11:05:01;3.57;;;2.20;;
18290;SDS011;9271;48.590;8.866;2023-08-31T11:07:31;4.57;;;2.20;;
18290;SDS011;9271;48.590;8.866;2023-08-31T11:10:10;5.07;;;2.20;;
18290;SDS011;9271;48.590;8.866;2023-08-31T11:12:42;3.40;;;2.13;;
18290;SDS011;9271;48.590;8.866;2023-08-31T11:15:13;3.97;;;2.03;;
18290;SDS011;9271;48.590;8.866;2023-08-31T11:17:40;3.30;;;1.70;;
18290;SDS011;9271;48.590;8.866;2023-08-31T11:20:12;3.33;;;2.10;;
18290;SDS011;9271;48.590;8.866;2023-08-31T11:22:41;4.63;;;2.20;;
18290;SDS011;9271;48.590;8.866;2023-08-31T11:25:11;2.70;;;1.93;;
18290;SDS011;9271;48.590;8.866;2023-08-31T11:27:38;3.83;;;2.00;;
18290;SDS011;9271;48.590;8.866;2023-08-31T11:30:10;4.10;;;2.07;;
18290;SDS011;9271;48.590;8.866;2023-08-31T11:32:43;3.57;;;2.30;;
18290;SDS011;9271;48.590;8.866;2023-08-31T11:35:12;3.53;;;2.20;;
18290;SDS011;9271;48.590;8.866;2023-08-31T11:37:40;6.73;;;2.30;;
18290;SDS011;9271;48.590;8.866;2023-08-31T11:40:08;3.03;;;2.00;;
18290;SDS011;9271;48.590;8.866;2023-08-31T11:42:35;4.13;;;2.53;;
18290;SDS011;9271;48.590;8.866;2023-08-31T11:45:03;3.40;;;2.30;;
18290;SDS011;9271;48.590;8.866;2023-08-31T11:47:30;4.13;;;3.37;;
18290;SDS011;9271;48.590;8.866;2023-08-31T11:49:58;3.38;;;1.90;;
18290;SDS011;9271;48.590;8.866;2023-08-31T11:52:28;2.97;;;2.00;;
18290;SDS011;9271;48.590;8.866;2023-08-31T11:54:56;3.37;;;2.10;;
18290;SDS011;9271;48.590;8.866;2023-08-31T11:57:25;4.97;;;2.53;;
18290;SDS011;9271;48.590;8.866;2023-08-31T11:59:53;2.70;;;2.17;;
18290;SDS011;9271;48.590;8.866;2023-08-31T12:02:20;2.77;;;2.10;;
18290;SDS011;9271;48.590;8.866;2023-08-31T12:04:47;4.30;;;2.90;;
18290;SDS011;9271;48.590;8.866;2023-08-31T12:07:16;3.23;;;1.97;;
18290;SDS011;9271;48.590;8.866;2023-08-31T12:09:44;5.83;;;2.20;;
18290;SDS011;9271;48.590;8.866;2023-08-31T12:12:13;3.37;;;2.03;;
18290;SDS011;9271;48.590;8.866;2023-08-31T12:14:40;2.42;;;1.83;;
18290;SDS011;9271;48.590;8.866;2023-08-31T12:17:07;5.40;;;2.00;;
18290;SDS011;9271;48.590;8.866;2023-08-31T12:19:36;3.05;;;2.10;;
18290;SDS011;9271;48.590;8.866;2023-08-31T12:22:03;5.55;;;2.20;;
18290;SDS011;9271;48.590;8.866;2023-08-31T12:24:36;2.70;;;2.10;;
18290;SDS011;9271;48.590;8.866;2023-08-31T12:27:05;4.22;;;2.20;;
18290;SDS011;9271;48.590;8.866;2023-08-31T12:29:31;4.05;;;2.05;;
18290;SDS011;9271;48.590;8.866;2023-08-31T12:31:58;4.63;;;2.22;;
18290;SDS011;9271;48.590;8.866;2023-08-31T12:34:24;4.65;;;2.30;;
18290;SDS011;9271;48.590;8.866;2023-08-31T12:36:51;3.10;;;2.07;;
18290;SDS011;9271;48.590;8.866;2023-08-31T12:39:18;3.33;;;2.30;;
18290;SDS011;9271;48.590;8.866;2023-08-31T12:41:45;3.63;;;2.00;;
18290;SDS011;9271;48.590;8.866;2023-08-31T12:44:13;2.47;;;1.77;;
18290;SDS011;9271;48.590;8.866;2023-08-31T12:46:40;2.57;;;2.07;;
18290;SDS011;9271;48.590;8.866;2023-08-31T12:49:06;3.97;;;2.30;;
18290;SDS011;9271;48.590;8.866;2023-08-31T12:51:33;4.30;;;2.20;;
18290;SDS011;9271;48.590;8.866;2023-08-31T12:53:59;9.17;;;2.23;;
18290;SDS011;9271;48.590;8.866;2023-08-31T12:56:26;5.10;;;2.27;;
18290;SDS011;9271;48.590;8.866;2023-08-31T12:58:53;4.40;;;1.97;;
18290;SDS011;9271;48.590;8.866;2023-08-31T13:01:21;2.33;;;1.80;;
18290;SDS011;9271;48.590;8.866;2023-08-31T13:03:48;4.37;;;2.53;;
18290;SDS011;9271;48.590;8.866;2023-08-31T13:06:15;3.20;;;2.10;;
18290;SDS011;9271;48.590;8.866;2023-08-31T13:08:42;2.27;;;1.90;;
18290;SDS011;9271;48.590;8.866;2023-08-31T13:11:10;4.67;;;2.30;;
18290;SDS011;9271;48.590;8.866;2023-08-31T13:13:37;2.73;;;2.03;;
18290;SDS011;9271;48.590;8.866;2023-08-31T13:16:04;2.97;;;2.07;;
18290;SDS011;9271;48.590;8.866;2023-08-31T13:18:32;4.63;;;2.07;;
18290;SDS011;9271;48.590;8.866;2023-08-31T13:20:59;3.20;;;2.00;;
18290;SDS011;9271;48.590;8.866;2023-08-31T13:23:27;3.60;;;2.20;;
18290;SDS011;9271;48.590;8.866;2023-08-31T13:25:54;4.20;;;2.23;;
18290;SDS011;9271;48.590;8.866;2023-08-31T13:28:22;3.07;;;2.13;;
18290;SDS011;9271;48.590;8.866;2023-08-31T13:30:48;4.03;;;2.00;;
18290;SDS011;9271;48.590;8.866;2023-08-31T13:33:15;3.53;;;2.10;;
18290;SDS011;9271;48.590;8.866;2023-08-31T13:35:44;2.83;;;2.00;;
18290;SDS011;9271;48.590;8.866;2023-08-31T13:38:11;4.23;;;2.13;;
18290;SDS011;9271;48.590;8.866;2023-08-31T13:40:38;3.93;;;2.00;;
18290;SDS011;9271;48.590;8.866;2023-08-31T13:43:05;6.53;;;2.40;;
18290;SDS011;9271;48.590;8.866;2023-08-31T13:45:32;8.07;;;2.53;;
18290;SDS011;9271;48.590;8.866;2023-08-31T13:47:58;6.33;;;2.33;;
18290;SDS011;9271;48.590;8.866;2023-08-31T13:50:26;4.90;;;2.23;;
18290;SDS011;9271;48.590;8.866;2023-08-31T13:52:54;4.90;;;1.97;;
18290;SDS011;9271;48.590;8.866;2023-08-31T13:55:21;3.73;;;2.27;;
18290;SDS011;9271;48.590;8.866;2023-08-31T13:57:48;7.13;;;2.20;;
18290;SDS011;9271;48.590;8.866;2023-08-31T14:00:15;5.23;;;2.10;;
18290;SDS011;9271;48.590;8.866;2023-08-31T14:02:42;4.70;;;2.20;;
18290;SDS011;9271;48.590;8.866;2023-08-31T14:05:09;7.03;;;2.20;;
18290;SDS011;9271;48.590;8.866;2023-08-31T14:07:36;3.30;;;2.00;;
18290;SDS011;9271;48.590;8.866;2023-08-31T14:10:05;3.97;;;2.00;;
18290;SDS011;9271;48.590;8.866;2023-08-31T14:12:32;5.53;;;2.23;;
18290;SDS011;9271;48.590;8.866;2023-08-31T14:14:59;5.60;;;2.63;;
18290;SDS011;9271;48.590;8.866;2023-08-31T14:17:28;5.17;;;2.20;;
18290;SDS011;9271;48.590;8.866;2023-08-31T14:19:56;2.37;;;2.10;;
18290;SDS011;9271;48.590;8.866;2023-08-31T14:22:24;3.97;;;2.40;;
18290;SDS011;9271;48.590;8.866;2023-08-31T14:24:51;3.30;;;2.10;;
18290;SDS011;9271;48.590;8.866;2023-08-31T14:27:19;7.53;;;2.50;;
18290;SDS011;9271;48.590;8.866;2023-08-31T14:29:45;4.17;;;2.30;;
18290;SDS011;9271;48.590;8.866;2023-08-31T14:32:12;5.37;;;2.60;;
18290;SDS011;9271;48.590;8.866;2023-08-31T14:34:39;5.17;;;2.30;;
18290;SDS011;9271;48.590;8.866;2023-08-31T14:37:06;2.97;;;2.30;;
18290;SDS011;9271;48.590;8.866;2023-08-31T14:39:33;3.57;;;2.30;;
18290;SDS011;9271;48.590;8.866;2023-08-31T14:42:00;4.03;;;2.20;;
18290;SDS011;9271;48.590;8.866;2023-08-31T14:44:29;3.60;;;2.13;;
18290;SDS011;9271;48.590;8.866;2023-08-31T14:46:56;6.93;;;2.50;;
18290;SDS011;9271;48.590;8.866;2023-08-31T14:49:22;3.00;;;2.43;;
18290;SDS011;9271;48.590;8.866;2023-08-31T14:51:50;3.17;;;2.10;;
18290;SDS011;9271;48.590;8.866;2023-08-31T14:54:17;4.67;;;2.30;;
18290;SDS011;9271;48.590;8.866;2023-08-31T14:56:43;4.27;;;2.33;;
18290;SDS011;9271;48.590;8.866;2023-08-31T14:59:10;4.97;;;2.63;;
18290;SDS011;9271;48.590;8.866;2023-08-31T15:01:38;4.43;;;2.37;;
18290;SDS011;9271;48.590;8.866;2023-08-31T15:04:05;5.27;;;2.33;;